Terminal Aerodrome Forecast
Issued by NWS Central Illinois

Home | Current Version | Previous Version | Text Only | Print | Product List | Glossary On
Versions: 1 2 3 4 5 6 7 8 9 10 11 12 13 14 15
883
FTUS43 KILX 261120
TAFSPI
TAF
KSPI 261120Z 2612/2712 20005KT P6SM SCT090 BKN150
     FM261500 23007KT P6SM SCT060 BKN200
     FM270000 32006KT P6SM BKN060
     FM270900 34008KT P6SM BKN030=

USA.gov is the U.S. government's official web portal to all federal, state and local government web resources and services.